Dallas, Texas
Traffic Map
Current Weather Conditions
Dallas, Texas
Broken Clouds
Broken Clouds
75°
Feels Like: 75°
Wind Chill: 75° Ceiling: 30000
Heat Index: 75° Visibility: 10mi
Dew Point: 70° Wind: 9mph
Humidity: 84% Direction: 210° (SSW)
Pressure: 30in Gusts: 0mph
Raw Report DataKDAL 011153Z 21008KT 10SM FEW010 BKN300 24/21 A3000 RMK AO2 SLP150 T02390211 10272 20239 53002
Traffic Incident Summary
Active as of:
Severity:
Category:
InformationThere was an issue retrieving the traffic information for this location. Please try a different location or try again shortly.
Advertisements
Track Severe Weather on mobile